Triana, Alabama
Current Conditions -  °F | °C
As of 1:53 PM on Thursday 30 Oct 2014 (Local Time) from KHSV Reporting Station
Clear Clear  
Wind Chill: 66°   Ceiling: Unl
Heat Index: 66°   Visibility: 10mi
Dew Point: 37°   Wind: 7mph
Humidity: 34%   Direction: 360°N
Pressure: 30.06"   Gusts: NA
Location:  34.6731°N, 86.8135°W
Report Text: KHSV 301853Z 36006KT 10SM CLR 19/03 A3006 RMK AO2 SLP178 T01890028
Loading
Personal Weather Stations






























Interactive Weather Map
Tropical Storm Tracking
New forecast layout! Learn more

10-Day Weather Forecast

Advertisements
Track Severe Weather on mobile